sensor_id;sensor_type;location;lat;lon;timestamp;P1;durP1;ratioP1;P2;durP2;ratioP2
30420;SDS011;17218;54.070;10.012;2024-03-25T00:00:22;5.88;;;2.03;;
30420;SDS011;17218;54.070;10.012;2024-03-25T00:02:50;3.65;;;2.17;;
30420;SDS011;17218;54.070;10.012;2024-03-25T00:05:17;3.88;;;1.55;;
30420;SDS011;17218;54.070;10.012;2024-03-25T00:07:47;3.80;;;1.80;;
30420;SDS011;17218;54.070;10.012;2024-03-25T00:10:13;2.90;;;1.63;;
30420;SDS011;17218;54.070;10.012;2024-03-25T00:12:39;1.50;;;1.40;;
30420;SDS011;17218;54.070;10.012;2024-03-25T00:15:05;3.53;;;1.88;;
30420;SDS011;17218;54.070;10.012;2024-03-25T00:17:32;4.22;;;1.60;;
30420;SDS011;17218;54.070;10.012;2024-03-25T00:19:58;3.15;;;1.45;;
30420;SDS011;17218;54.070;10.012;2024-03-25T00:22:26;5.00;;;2.10;;
30420;SDS011;17218;54.070;10.012;2024-03-25T00:24:52;4.88;;;1.70;;
30420;SDS011;17218;54.070;10.012;2024-03-25T00:27:18;2.25;;;1.10;;
30420;SDS011;17218;54.070;10.012;2024-03-25T00:29:44;4.93;;;1.55;;
30420;SDS011;17218;54.070;10.012;2024-03-25T00:32:11;2.67;;;1.40;;
30420;SDS011;17218;54.070;10.012;2024-03-25T00:34:36;5.32;;;1.67;;
30420;SDS011;17218;54.070;10.012;2024-03-25T00:37:03;3.20;;;1.48;;
30420;SDS011;17218;54.070;10.012;2024-03-25T00:39:30;1.73;;;1.17;;
30420;SDS011;17218;54.070;10.012;2024-03-25T00:41:57;6.97;;;2.00;;
30420;SDS011;17218;54.070;10.012;2024-03-25T00:44:23;3.42;;;1.55;;
30420;SDS011;17218;54.070;10.012;2024-03-25T00:46:49;3.88;;;1.70;;
30420;SDS011;17218;54.070;10.012;2024-03-25T00:49:15;4.30;;;2.03;;
30420;SDS011;17218;54.070;10.012;2024-03-25T00:51:41;3.30;;;1.65;;
30420;SDS011;17218;54.070;10.012;2024-03-25T00:54:07;2.78;;;1.50;;
30420;SDS011;17218;54.070;10.012;2024-03-25T00:56:35;4.32;;;2.17;;
30420;SDS011;17218;54.070;10.012;2024-03-25T00:59:00;3.25;;;1.60;;
30420;SDS011;17218;54.070;10.012;2024-03-25T01:01:28;4.53;;;1.88;;
30420;SDS011;17218;54.070;10.012;2024-03-25T01:03:54;2.65;;;1.80;;
30420;SDS011;17218;54.070;10.012;2024-03-25T01:06:20;4.80;;;1.52;;
30420;SDS011;17218;54.070;10.012;2024-03-25T01:08:46;3.35;;;1.38;;
30420;SDS011;17218;54.070;10.012;2024-03-25T01:11:12;3.92;;;1.65;;
30420;SDS011;17218;54.070;10.012;2024-03-25T01:13:39;2.30;;;1.47;;
30420;SDS011;17218;54.070;10.012;2024-03-25T01:16:06;3.58;;;1.33;;
30420;SDS011;17218;54.070;10.012;2024-03-25T01:18:32;3.08;;;1.63;;
30420;SDS011;17218;54.070;10.012;2024-03-25T01:20:58;2.50;;;1.63;;
30420;SDS011;17218;54.070;10.012;2024-03-25T01:23:24;4.57;;;1.70;;
30420;SDS011;17218;54.070;10.012;2024-03-25T01:25:51;2.47;;;1.42;;
30420;SDS011;17218;54.070;10.012;2024-03-25T01:28:16;2.10;;;1.63;;
30420;SDS011;17218;54.070;10.012;2024-03-25T01:30:44;3.78;;;1.85;;
30420;SDS011;17218;54.070;10.012;2024-03-25T01:33:10;3.47;;;1.50;;
30420;SDS011;17218;54.070;10.012;2024-03-25T01:35:36;5.90;;;1.70;;
30420;SDS011;17218;54.070;10.012;2024-03-25T01:38:02;1.85;;;1.20;;
30420;SDS011;17218;54.070;10.012;2024-03-25T01:40:29;2.70;;;1.60;;
30420;SDS011;17218;54.070;10.012;2024-03-25T01:42:55;2.17;;;1.40;;
30420;SDS011;17218;54.070;10.012;2024-03-25T01:45:21;5.43;;;1.92;;
30420;SDS011;17218;54.070;10.012;2024-03-25T01:47:48;2.60;;;1.52;;
30420;SDS011;17218;54.070;10.012;2024-03-25T01:50:15;4.57;;;1.77;;
30420;SDS011;17218;54.070;10.012;2024-03-25T01:52:41;2.70;;;1.77;;
30420;SDS011;17218;54.070;10.012;2024-03-25T01:55:08;2.08;;;1.40;;
30420;SDS011;17218;54.070;10.012;2024-03-25T01:57:41;2.40;;;1.70;;
30420;SDS011;17218;54.070;10.012;2024-03-25T02:00:08;3.78;;;1.92;;
30420;SDS011;17218;54.070;10.012;2024-03-25T02:02:36;3.67;;;2.10;;
30420;SDS011;17218;54.070;10.012;2024-03-25T02:05:08;4.03;;;1.77;;
30420;SDS011;17218;54.070;10.012;2024-03-25T02:07:35;4.00;;;1.70;;
30420;SDS011;17218;54.070;10.012;2024-03-25T02:10:02;2.28;;;1.50;;
30420;SDS011;17218;54.070;10.012;2024-03-25T02:12:29;4.00;;;1.88;;
30420;SDS011;17218;54.070;10.012;2024-03-25T02:14:55;2.67;;;1.80;;
30420;SDS011;17218;54.070;10.012;2024-03-25T02:17:21;2.58;;;1.40;;
30420;SDS011;17218;54.070;10.012;2024-03-25T02:19:47;2.75;;;1.95;;
30420;SDS011;17218;54.070;10.012;2024-03-25T02:22:15;2.05;;;1.50;;
30420;SDS011;17218;54.070;10.012;2024-03-25T02:24:40;1.73;;;1.20;;
30420;SDS011;17218;54.070;10.012;2024-03-25T02:27:09;3.50;;;1.50;;
30420;SDS011;17218;54.070;10.012;2024-03-25T02:29:39;4.18;;;1.45;;
30420;SDS011;17218;54.070;10.012;2024-03-25T02:32:06;2.15;;;1.55;;
30420;SDS011;17218;54.070;10.012;2024-03-25T02:34:35;3.03;;;1.50;;
30420;SDS011;17218;54.070;10.012;2024-03-25T02:37:02;2.08;;;1.42;;
30420;SDS011;17218;54.070;10.012;2024-03-25T02:39:28;1.63;;;1.08;;
30420;SDS011;17218;54.070;10.012;2024-03-25T02:41:55;2.28;;;1.30;;
30420;SDS011;17218;54.070;10.012;2024-03-25T02:44:23;2.38;;;1.33;;
30420;SDS011;17218;54.070;10.012;2024-03-25T02:46:49;3.40;;;1.58;;
30420;SDS011;17218;54.070;10.012;2024-03-25T02:49:15;2.70;;;1.40;;
30420;SDS011;17218;54.070;10.012;2024-03-25T02:51:42;3.55;;;1.48;;
30420;SDS011;17218;54.070;10.012;2024-03-25T02:54:07;2.65;;;1.35;;
30420;SDS011;17218;54.070;10.012;2024-03-25T02:56:34;4.20;;;1.70;;
30420;SDS011;17218;54.070;10.012;2024-03-25T02:59:00;4.38;;;1.30;;
30420;SDS011;17218;54.070;10.012;2024-03-25T03:01:28;3.55;;;1.65;;
30420;SDS011;17218;54.070;10.012;2024-03-25T03:03:53;2.58;;;1.35;;
30420;SDS011;17218;54.070;10.012;2024-03-25T03:08:55;2.30;;;1.33;;
30420;SDS011;17218;54.070;10.012;2024-03-25T03:11:21;7.43;;;1.88;;
30420;SDS011;17218;54.070;10.012;2024-03-25T03:13:47;3.90;;;1.52;;
30420;SDS011;17218;54.070;10.012;2024-03-25T03:16:13;5.60;;;1.60;;
30420;SDS011;17218;54.070;10.012;2024-03-25T03:18:40;3.13;;;1.42;;
30420;SDS011;17218;54.070;10.012;2024-03-25T03:21:07;3.83;;;1.33;;
30420;SDS011;17218;54.070;10.012;2024-03-25T03:23:33;4.00;;;1.20;;
30420;SDS011;17218;54.070;10.012;2024-03-25T03:25:59;3.28;;;1.67;;
30420;SDS011;17218;54.070;10.012;2024-03-25T03:28:25;5.78;;;1.50;;
30420;SDS011;17218;54.070;10.012;2024-03-25T03:30:53;2.13;;;1.20;;
30420;SDS011;17218;54.070;10.012;2024-03-25T03:33:18;3.33;;;1.25;;
30420;SDS011;17218;54.070;10.012;2024-03-25T03:35:46;3.03;;;1.20;;
30420;SDS011;17218;54.070;10.012;2024-03-25T03:38:12;3.53;;;1.33;;
30420;SDS011;17218;54.070;10.012;2024-03-25T03:40:39;3.33;;;1.55;;
30420;SDS011;17218;54.070;10.012;2024-03-25T03:43:04;2.80;;;1.17;;
30420;SDS011;17218;54.070;10.012;2024-03-25T03:45:32;4.25;;;1.60;;
30420;SDS011;17218;54.070;10.012;2024-03-25T03:47:59;2.83;;;1.38;;
30420;SDS011;17218;54.070;10.012;2024-03-25T03:50:25;2.97;;;1.65;;
30420;SDS011;17218;54.070;10.012;2024-03-25T03:52:52;1.33;;;1.17;;
30420;SDS011;17218;54.070;10.012;2024-03-25T03:55:18;2.20;;;1.67;;
30420;SDS011;17218;54.070;10.012;2024-03-25T03:57:44;3.53;;;1.30;;
30420;SDS011;17218;54.070;10.012;2024-03-25T04:00:11;2.17;;;1.17;;
30420;SDS011;17218;54.070;10.012;2024-03-25T04:02:39;4.10;;;1.30;;
30420;SDS011;17218;54.070;10.012;2024-03-25T04:05:06;2.05;;;1.27;;
30420;SDS011;17218;54.070;10.012;2024-03-25T04:07:32;3.33;;;1.30;;
30420;SDS011;17218;54.070;10.012;2024-03-25T04:10:00;2.30;;;1.45;;
30420;SDS011;17218;54.070;10.012;2024-03-25T04:12:25;4.63;;;1.30;;
30420;SDS011;17218;54.070;10.012;2024-03-25T04:14:52;1.33;;;1.00;;
30420;SDS011;17218;54.070;10.012;2024-03-25T04:17:20;2.17;;;1.02;;
30420;SDS011;17218;54.070;10.012;2024-03-25T04:19:46;1.70;;;1.10;;
30420;SDS011;17218;54.070;10.012;2024-03-25T04:22:12;1.80;;;1.13;;
30420;SDS011;17218;54.070;10.012;2024-03-25T04:24:38;2.75;;;1.00;;
30420;SDS011;17218;54.070;10.012;2024-03-25T04:27:05;2.58;;;1.02;;
30420;SDS011;17218;54.070;10.012;2024-03-25T04:32:16;2.80;;;1.02;;
30420;SDS011;17218;54.070;10.012;2024-03-25T04:34:42;5.60;;;1.45;;
30420;SDS011;17218;54.070;10.012;2024-03-25T04:37:09;4.53;;;1.30;;
30420;SDS011;17218;54.070;10.012;2024-03-25T04:39:35;2.83;;;1.15;;
30420;SDS011;17218;54.070;10.012;2024-03-25T04:42:00;1.23;;;0.93;;
30420;SDS011;17218;54.070;10.012;2024-03-25T04:44:28;2.70;;;1.00;;
30420;SDS011;17218;54.070;10.012;2024-03-25T04:50:30;1.93;;;1.23;;
30420;SDS011;17218;54.070;10.012;2024-03-25T04:52:55;4.47;;;1.33;;
30420;SDS011;17218;54.070;10.012;2024-03-25T04:55:21;2.75;;;1.08;;
30420;SDS011;17218;54.070;10.012;2024-03-25T04:57:47;2.47;;;1.35;;
30420;SDS011;17218;54.070;10.012;2024-03-25T05:00:14;1.40;;;1.10;;
30420;SDS011;17218;54.070;10.012;2024-03-25T05:02:40;2.70;;;1.23;;
30420;SDS011;17218;54.070;10.012;2024-03-25T05:05:06;2.53;;;1.20;;
30420;SDS011;17218;54.070;10.012;2024-03-25T05:07:32;3.15;;;1.23;;
30420;SDS011;17218;54.070;10.012;2024-03-25T05:09:58;3.50;;;1.63;;
30420;SDS011;17218;54.070;10.012;2024-03-25T05:12:23;5.10;;;1.52;;
30420;SDS011;17218;54.070;10.012;2024-03-25T05:14:49;3.00;;;1.42;;
30420;SDS011;17218;54.070;10.012;2024-03-25T05:17:16;1.40;;;0.95;;
30420;SDS011;17218;54.070;10.012;2024-03-25T05:19:42;1.97;;;0.90;;
30420;SDS011;17218;54.070;10.012;2024-03-25T05:22:26;1.70;;;0.90;;
30420;SDS011;17218;54.070;10.012;2024-03-25T05:24:52;2.23;;;0.90;;
30420;SDS011;17218;54.070;10.012;2024-03-25T05:27:17;1.55;;;0.93;;
30420;SDS011;17218;54.070;10.012;2024-03-25T05:29:43;2.47;;;1.13;;
30420;SDS011;17218;54.070;10.012;2024-03-25T05:32:09;1.98;;;1.10;;
30420;SDS011;17218;54.070;10.012;2024-03-25T05:34:36;3.60;;;1.27;;
30420;SDS011;17218;54.070;10.012;2024-03-25T05:37:01;3.95;;;1.25;;
30420;SDS011;17218;54.070;10.012;2024-03-25T05:39:27;2.05;;;0.90;;
30420;SDS011;17218;54.070;10.012;2024-03-25T05:41:53;2.37;;;1.10;;
30420;SDS011;17218;54.070;10.012;2024-03-25T05:44:18;1.67;;;1.30;;
30420;SDS011;17218;54.070;10.012;2024-03-25T05:46:44;3.43;;;1.13;;
30420;SDS011;17218;54.070;10.012;2024-03-25T05:49:10;2.72;;;1.45;;
30420;SDS011;17218;54.070;10.012;2024-03-25T05:51:37;1.80;;;1.00;;
30420;SDS011;17218;54.070;10.012;2024-03-25T05:54:03;1.30;;;1.10;;
30420;SDS011;17218;54.070;10.012;2024-03-25T05:56:29;1.50;;;1.17;;
30420;SDS011;17218;54.070;10.012;2024-03-25T05:58:55;1.27;;;0.93;;
30420;SDS011;17218;54.070;10.012;2024-03-25T06:01:21;1.02;;;0.80;;
30420;SDS011;17218;54.070;10.012;2024-03-25T06:03:47;1.63;;;0.73;;
30420;SDS011;17218;54.070;10.012;2024-03-25T06:06:12;2.03;;;1.20;;
30420;SDS011;17218;54.070;10.012;2024-03-25T06:08:39;1.13;;;1.02;;
30420;SDS011;17218;54.070;10.012;2024-03-25T06:11:07;2.05;;;1.02;;
30420;SDS011;17218;54.070;10.012;2024-03-25T06:13:33;2.38;;;1.40;;
30420;SDS011;17218;54.070;10.012;2024-03-25T06:15:58;1.02;;;0.70;;
30420;SDS011;17218;54.070;10.012;2024-03-25T06:18:24;3.40;;;1.15;;
30420;SDS011;17218;54.070;10.012;2024-03-25T06:20:50;1.75;;;0.80;;
30420;SDS011;17218;54.070;10.012;2024-03-25T06:29:40;1.45;;;1.05;;
30420;SDS011;17218;54.070;10.012;2024-03-25T06:32:09;2.75;;;0.93;;
30420;SDS011;17218;54.070;10.012;2024-03-25T06:34:53;1.97;;;1.23;;
30420;SDS011;17218;54.070;10.012;2024-03-25T06:37:18;1.83;;;0.80;;
30420;SDS011;17218;54.070;10.012;2024-03-25T06:39:44;2.90;;;1.05;;
30420;SDS011;17218;54.070;10.012;2024-03-25T06:42:09;2.45;;;1.48;;
30420;SDS011;17218;54.070;10.012;2024-03-25T06:44:35;2.95;;;1.15;;
30420;SDS011;17218;54.070;10.012;2024-03-25T06:47:02;4.97;;;0.73;;
30420;SDS011;17218;54.070;10.012;2024-03-25T06:49:28;1.48;;;1.00;;
30420;SDS011;17218;54.070;10.012;2024-03-25T06:51:54;1.75;;;0.80;;
30420;SDS011;17218;54.070;10.012;2024-03-25T06:54:19;1.38;;;1.02;;
30420;SDS011;17218;54.070;10.012;2024-03-25T06:56:45;2.03;;;0.97;;
30420;SDS011;17218;54.070;10.012;2024-03-25T06:59:11;5.45;;;1.02;;
30420;SDS011;17218;54.070;10.012;2024-03-25T07:01:36;2.35;;;1.08;;
30420;SDS011;17218;54.070;10.012;2024-03-25T07:04:03;2.25;;;0.90;;
30420;SDS011;17218;54.070;10.012;2024-03-25T07:06:29;1.48;;;0.88;;
30420;SDS011;17218;54.070;10.012;2024-03-25T07:08:55;3.15;;;0.80;;
30420;SDS011;17218;54.070;10.012;2024-03-25T07:11:20;1.67;;;0.90;;
30420;SDS011;17218;54.070;10.012;2024-03-25T07:13:46;0.97;;;0.63;;
30420;SDS011;17218;54.070;10.012;2024-03-25T07:16:13;4.70;;;0.90;;
30420;SDS011;17218;54.070;10.012;2024-03-25T07:18:39;2.40;;;1.20;;
30420;SDS011;17218;54.070;10.012;2024-03-25T07:21:05;2.13;;;0.82;;
30420;SDS011;17218;54.070;10.012;2024-03-25T07:23:31;3.13;;;0.85;;
30420;SDS011;17218;54.070;10.012;2024-03-25T07:25:57;3.05;;;1.02;;
30420;SDS011;17218;54.070;10.012;2024-03-25T07:28:22;0.82;;;0.65;;
30420;SDS011;17218;54.070;10.012;2024-03-25T07:30:49;4.80;;;1.20;;
30420;SDS011;17218;54.070;10.012;2024-03-25T07:33:15;1.90;;;1.15;;
30420;SDS011;17218;54.070;10.012;2024-03-25T07:35:41;2.42;;;1.00;;
30420;SDS011;17218;54.070;10.012;2024-03-25T07:38:08;2.03;;;1.33;;
30420;SDS011;17218;54.070;10.012;2024-03-25T07:43:20;1.23;;;0.60;;
30420;SDS011;17218;54.070;10.012;2024-03-25T07:45:50;5.75;;;0.80;;
30420;SDS011;17218;54.070;10.012;2024-03-25T07:48:16;2.55;;;1.15;;
30420;SDS011;17218;54.070;10.012;2024-03-25T07:51:23;4.32;;;0.80;;
30420;SDS011;17218;54.070;10.012;2024-03-25T07:53:44;3.55;;;1.00;;
30420;SDS011;17218;54.070;10.012;2024-03-25T07:56:12;6.20;;;1.05;;
30420;SDS011;17218;54.070;10.012;2024-03-25T07:58:40;2.20;;;0.80;;
30420;SDS011;17218;54.070;10.012;2024-03-25T08:01:09;3.85;;;1.15;;
30420;SDS011;17218;54.070;10.012;2024-03-25T08:03:35;2.25;;;0.80;;
30420;SDS011;17218;54.070;10.012;2024-03-25T08:06:21;1.83;;;0.68;;
30420;SDS011;17218;54.070;10.012;2024-03-25T08:22:00;2.55;;;0.77;;
30420;SDS011;17218;54.070;10.012;2024-03-25T08:27:14;1.20;;;0.57;;
30420;SDS011;17218;54.070;10.012;2024-03-25T08:29:40;2.88;;;1.00;;
30420;SDS011;17218;54.070;10.012;2024-03-25T08:32:06;4.45;;;1.20;;
30420;SDS011;17218;54.070;10.012;2024-03-25T08:34:32;3.45;;;1.20;;
30420;SDS011;17218;54.070;10.012;2024-03-25T08:36:59;3.65;;;1.17;;
30420;SDS011;17218;54.070;10.012;2024-03-25T08:39:24;5.88;;;1.60;;
30420;SDS011;17218;54.070;10.012;2024-03-25T08:41:50;0.77;;;0.63;;
30420;SDS011;17218;54.070;10.012;2024-03-25T08:44:15;3.20;;;1.13;;
30420;SDS011;17218;54.070;10.012;2024-03-25T08:46:41;4.03;;;1.50;;
30420;SDS011;17218;54.070;10.012;2024-03-25T08:49:07;4.35;;;1.13;;
30420;SDS011;17218;54.070;10.012;2024-03-25T08:51:33;3.20;;;1.00;;
30420;SDS011;17218;54.070;10.012;2024-03-25T08:54:01;2.22;;;1.52;;
30420;SDS011;17218;54.070;10.012;2024-03-25T08:56:26;2.80;;;1.25;;
30420;SDS011;17218;54.070;10.012;2024-03-25T08:58:52;1.20;;;0.98;;
30420;SDS011;17218;54.070;10.012;2024-03-25T09:01:17;3.40;;;0.73;;
30420;SDS011;17218;54.070;10.012;2024-03-25T09:03:43;1.73;;;0.70;;
30420;SDS011;17218;54.070;10.012;2024-03-25T09:06:09;2.35;;;0.65;;
30420;SDS011;17218;54.070;10.012;2024-03-25T09:08:34;1.25;;;0.70;;
30420;SDS011;17218;54.070;10.012;2024-03-25T09:11:01;3.22;;;0.60;;
30420;SDS011;17218;54.070;10.012;2024-03-25T09:13:30;1.75;;;0.80;;
30420;SDS011;17218;54.070;10.012;2024-03-25T09:15:56;1.45;;;0.60;;
30420;SDS011;17218;54.070;10.012;2024-03-25T09:18:22;2.10;;;0.68;;
30420;SDS011;17218;54.070;10.012;2024-03-25T09:20:47;0.70;;;0.60;;
30420;SDS011;17218;54.070;10.012;2024-03-25T09:23:13;3.13;;;1.23;;
30420;SDS011;17218;54.070;10.012;2024-03-25T09:25:39;4.85;;;1.00;;
30420;SDS011;17218;54.070;10.012;2024-03-25T09:28:06;3.05;;;0.95;;
30420;SDS011;17218;54.070;10.012;2024-03-25T09:30:32;5.57;;;0.98;;
30420;SDS011;17218;54.070;10.012;2024-03-25T09:32:58;4.13;;;0.90;;
30420;SDS011;17218;54.070;10.012;2024-03-25T09:35:23;1.95;;;0.70;;
30420;SDS011;17218;54.070;10.012;2024-03-25T09:37:49;2.25;;;0.93;;
30420;SDS011;17218;54.070;10.012;2024-03-25T09:40:14;2.00;;;0.77;;
30420;SDS011;17218;54.070;10.012;2024-03-25T09:42:42;2.28;;;0.85;;
30420;SDS011;17218;54.070;10.012;2024-03-25T09:45:15;1.13;;;0.90;;
30420;SDS011;17218;54.070;10.012;2024-03-25T09:47:42;3.97;;;1.00;;
30420;SDS011;17218;54.070;10.012;2024-03-25T09:50:11;3.58;;;1.20;;
30420;SDS011;17218;54.070;10.012;2024-03-25T09:52:37;2.05;;;1.00;;
30420;SDS011;17218;54.070;10.012;2024-03-25T09:55:03;3.22;;;1.17;;
30420;SDS011;17218;54.070;10.012;2024-03-25T09:57:29;5.05;;;1.33;;
30420;SDS011;17218;54.070;10.012;2024-03-25T09:59:55;2.50;;;1.00;;
30420;SDS011;17218;54.070;10.012;2024-03-25T10:02:22;3.13;;;0.77;;
30420;SDS011;17218;54.070;10.012;2024-03-25T10:04:49;4.30;;;1.73;;
30420;SDS011;17218;54.070;10.012;2024-03-25T10:07:21;3.17;;;0.90;;
30420;SDS011;17218;54.070;10.012;2024-03-25T10:09:47;5.88;;;1.77;;
30420;SDS011;17218;54.070;10.012;2024-03-25T10:12:13;2.58;;;1.02;;
30420;SDS011;17218;54.070;10.012;2024-03-25T10:14:39;4.47;;;1.40;;
30420;SDS011;17218;54.070;10.012;2024-03-25T10:17:05;3.88;;;1.23;;
30420;SDS011;17218;54.070;10.012;2024-03-25T10:19:32;3.53;;;1.08;;
30420;SDS011;17218;54.070;10.012;2024-03-25T10:22:02;5.03;;;1.63;;
30420;SDS011;17218;54.070;10.012;2024-03-25T10:24:36;3.13;;;1.45;;
30420;SDS011;17218;54.070;10.012;2024-03-25T10:27:02;7.13;;;1.40;;
30420;SDS011;17218;54.070;10.012;2024-03-25T10:29:28;1.90;;;1.00;;
30420;SDS011;17218;54.070;10.012;2024-03-25T10:31:58;3.00;;;1.17;;
30420;SDS011;17218;54.070;10.012;2024-03-25T10:34:24;4.40;;;1.20;;
30420;SDS011;17218;54.070;10.012;2024-03-25T10:36:51;4.95;;;0.88;;
30420;SDS011;17218;54.070;10.012;2024-03-25T10:39:21;2.33;;;0.75;;
30420;SDS011;17218;54.070;10.012;2024-03-25T10:41:50;2.38;;;1.00;;
30420;SDS011;17218;54.070;10.012;2024-03-25T10:44:17;1.83;;;0.95;;
30420;SDS011;17218;54.070;10.012;2024-03-25T10:46:43;2.17;;;1.08;;
30420;SDS011;17218;54.070;10.012;2024-03-25T10:49:11;0.98;;;0.50;;
30420;SDS011;17218;54.070;10.012;2024-03-25T10:51:41;1.48;;;0.80;;
30420;SDS011;17218;54.070;10.012;2024-03-25T10:54:10;1.58;;;0.80;;
30420;SDS011;17218;54.070;10.012;2024-03-25T10:56:38;4.43;;;0.80;;
30420;SDS011;17218;54.070;10.012;2024-03-25T10:59:04;3.65;;;0.98;;
30420;SDS011;17218;54.070;10.012;2024-03-25T11:01:32;7.13;;;1.73;;
30420;SDS011;17218;54.070;10.012;2024-03-25T11:03:58;2.10;;;0.77;;
30420;SDS011;17218;54.070;10.012;2024-03-25T11:06:25;2.08;;;1.00;;
30420;SDS011;17218;54.070;10.012;2024-03-25T11:08:55;2.88;;;1.67;;
30420;SDS011;17218;54.070;10.012;2024-03-25T11:11:23;3.97;;;0.85;;
30420;SDS011;17218;54.070;10.012;2024-03-25T11:13:48;3.15;;;1.05;;
30420;SDS011;17218;54.070;10.012;2024-03-25T11:16:25;4.60;;;1.05;;
30420;SDS011;17218;54.070;10.012;2024-03-25T11:18:51;6.57;;;1.17;;
30420;SDS011;17218;54.070;10.012;2024-03-25T11:21:23;1.67;;;0.65;;
30420;SDS011;17218;54.070;10.012;2024-03-25T11:23:50;3.90;;;1.05;;
30420;SDS011;17218;54.070;10.012;2024-03-25T11:28:44;1.65;;;0.90;;
30420;SDS011;17218;54.070;10.012;2024-03-25T11:31:10;3.05;;;1.02;;
30420;SDS011;17218;54.070;10.012;2024-03-25T11:33:36;2.08;;;0.68;;
30420;SDS011;17218;54.070;10.012;2024-03-25T11:36:02;1.98;;;0.70;;
30420;SDS011;17218;54.070;10.012;2024-03-25T11:38:29;4.40;;;0.73;;
30420;SDS011;17218;54.070;10.012;2024-03-25T11:40:54;1.65;;;0.68;;
30420;SDS011;17218;54.070;10.012;2024-03-25T11:43:21;2.47;;;0.63;;
30420;SDS011;17218;54.070;10.012;2024-03-25T11:45:49;3.42;;;0.75;;
30420;SDS011;17218;54.070;10.012;2024-03-25T11:48:15;5.03;;;1.00;;
30420;SDS011;17218;54.070;10.012;2024-03-25T11:50:40;3.03;;;0.73;;
30420;SDS011;17218;54.070;10.012;2024-03-25T11:53:06;1.33;;;0.85;;
30420;SDS011;17218;54.070;10.012;2024-03-25T11:55:32;1.05;;;0.68;;
30420;SDS011;17218;54.070;10.012;2024-03-25T11:57:58;2.83;;;0.60;;
30420;SDS011;17218;54.070;10.012;2024-03-25T12:00:24;1.77;;;0.73;;
30420;SDS011;17218;54.070;10.012;2024-03-25T12:02:51;2.33;;;0.88;;
30420;SDS011;17218;54.070;10.012;2024-03-25T12:05:17;2.13;;;0.70;;
30420;SDS011;17218;54.070;10.012;2024-03-25T12:07:43;2.28;;;0.85;;
30420;SDS011;17218;54.070;10.012;2024-03-25T12:10:08;3.80;;;0.85;;
30420;SDS011;17218;54.070;10.012;2024-03-25T12:12:53;2.60;;;0.93;;
30420;SDS011;17218;54.070;10.012;2024-03-25T12:15:18;3.15;;;0.90;;
30420;SDS011;17218;54.070;10.012;2024-03-25T12:17:44;3.88;;;1.15;;
30420;SDS011;17218;54.070;10.012;2024-03-25T12:20:12;2.17;;;0.68;;
30420;SDS011;17218;54.070;10.012;2024-03-25T12:22:38;1.77;;;0.88;;
30420;SDS011;17218;54.070;10.012;2024-03-25T12:25:04;2.92;;;0.82;;
30420;SDS011;17218;54.070;10.012;2024-03-25T12:27:30;0.70;;;0.60;;
30420;SDS011;17218;54.070;10.012;2024-03-25T12:29:57;2.60;;;1.00;;
30420;SDS011;17218;54.070;10.012;2024-03-25T12:32:30;4.32;;;0.80;;
30420;SDS011;17218;54.070;10.012;2024-03-25T12:34:57;1.25;;;0.93;;
30420;SDS011;17218;54.070;10.012;2024-03-25T12:37:24;5.10;;;0.98;;
30420;SDS011;17218;54.070;10.012;2024-03-25T12:39:51;0.75;;;0.70;;
30420;SDS011;17218;54.070;10.012;2024-03-25T12:42:16;2.17;;;0.68;;
30420;SDS011;17218;54.070;10.012;2024-03-25T12:44:42;1.00;;;0.73;;
30420;SDS011;17218;54.070;10.012;2024-03-25T12:47:08;2.35;;;0.90;;
30420;SDS011;17218;54.070;10.012;2024-03-25T12:49:34;1.92;;;0.90;;
30420;SDS011;17218;54.070;10.012;2024-03-25T12:51:59;2.20;;;0.80;;
30420;SDS011;17218;54.070;10.012;2024-03-25T12:54:26;1.38;;;0.70;;
30420;SDS011;17218;54.070;10.012;2024-03-25T12:56:52;1.23;;;0.70;;
30420;SDS011;17218;54.070;10.012;2024-03-25T12:59:18;2.90;;;0.70;;
30420;SDS011;17218;54.070;10.012;2024-03-25T13:01:43;4.18;;;1.30;;
30420;SDS011;17218;54.070;10.012;2024-03-25T13:04:09;1.92;;;0.70;;
30420;SDS011;17218;54.070;10.012;2024-03-25T13:06:35;0.93;;;0.57;;
30420;SDS011;17218;54.070;10.012;2024-03-25T13:09:00;2.10;;;0.50;;
30420;SDS011;17218;54.070;10.012;2024-03-25T13:11:27;1.20;;;0.47;;
30420;SDS011;17218;54.070;10.012;2024-03-25T13:13:53;1.77;;;0.98;;
30420;SDS011;17218;54.070;10.012;2024-03-25T13:16:19;3.40;;;0.77;;
30420;SDS011;17218;54.070;10.012;2024-03-25T13:18:45;0.68;;;0.40;;
30420;SDS011;17218;54.070;10.012;2024-03-25T13:21:10;2.15;;;0.73;;
30420;SDS011;17218;54.070;10.012;2024-03-25T13:23:36;1.70;;;0.70;;
30420;SDS011;17218;54.070;10.012;2024-03-25T13:26:02;1.17;;;0.63;;
30420;SDS011;17218;54.070;10.012;2024-03-25T13:28:29;3.10;;;0.73;;
30420;SDS011;17218;54.070;10.012;2024-03-25T13:30:54;2.28;;;0.68;;
30420;SDS011;17218;54.070;10.012;2024-03-25T13:36:42;0.80;;;0.50;;
30420;SDS011;17218;54.070;10.012;2024-03-25T13:39:08;1.48;;;0.75;;
30420;SDS011;17218;54.070;10.012;2024-03-25T13:41:33;1.38;;;0.60;;
30420;SDS011;17218;54.070;10.012;2024-03-25T13:44:00;1.35;;;0.50;;
30420;SDS011;17218;54.070;10.012;2024-03-25T13:46:26;1.30;;;0.50;;
30420;SDS011;17218;54.070;10.012;2024-03-25T13:48:52;1.92;;;0.57;;
30420;SDS011;17218;54.070;10.012;2024-03-25T13:51:17;2.00;;;0.65;;
30420;SDS011;17218;54.070;10.012;2024-03-25T13:53:43;0.65;;;0.50;;
30420;SDS011;17218;54.070;10.012;2024-03-25T13:56:08;3.00;;;0.85;;
30420;SDS011;17218;54.070;10.012;2024-03-25T13:58:34;3.10;;;1.02;;
30420;SDS011;17218;54.070;10.012;2024-03-25T14:01:01;2.80;;;1.25;;
30420;SDS011;17218;54.070;10.012;2024-03-25T14:03:27;4.05;;;1.02;;
30420;SDS011;17218;54.070;10.012;2024-03-25T14:05:52;2.35;;;0.80;;
30420;SDS011;17218;54.070;10.012;2024-03-25T14:08:18;4.93;;;1.27;;
30420;SDS011;17218;54.070;10.012;2024-03-25T14:10:43;3.13;;;1.13;;
30420;SDS011;17218;54.070;10.012;2024-03-25T14:13:09;4.85;;;1.45;;
30420;SDS011;17218;54.070;10.012;2024-03-25T14:15:35;1.88;;;0.80;;
30420;SDS011;17218;54.070;10.012;2024-03-25T14:18:02;2.33;;;1.20;;
30420;SDS011;17218;54.070;10.012;2024-03-25T14:20:27;4.45;;;1.08;;
30420;SDS011;17218;54.070;10.012;2024-03-25T14:22:53;4.15;;;1.27;;
30420;SDS011;17218;54.070;10.012;2024-03-25T14:25:19;5.28;;;1.13;;
30420;SDS011;17218;54.070;10.012;2024-03-25T14:27:44;3.83;;;1.63;;
30420;SDS011;17218;54.070;10.012;2024-03-25T14:30:10;4.25;;;1.08;;
30420;SDS011;17218;54.070;10.012;2024-03-25T14:32:37;3.83;;;0.88;;
30420;SDS011;17218;54.070;10.012;2024-03-25T14:35:04;3.13;;;1.00;;
30420;SDS011;17218;54.070;10.012;2024-03-25T14:37:30;1.80;;;0.73;;
30420;SDS011;17218;54.070;10.012;2024-03-25T14:39:55;1.80;;;0.88;;
30420;SDS011;17218;54.070;10.012;2024-03-25T14:42:21;1.30;;;0.50;;
30420;SDS011;17218;54.070;10.012;2024-03-25T14:44:46;1.50;;;0.75;;
30420;SDS011;17218;54.070;10.012;2024-03-25T14:47:12;2.25;;;0.70;;
30420;SDS011;17218;54.070;10.012;2024-03-25T14:49:38;1.88;;;0.73;;
30420;SDS011;17218;54.070;10.012;2024-03-25T14:52:05;1.70;;;0.75;;
30420;SDS011;17218;54.070;10.012;2024-03-25T14:54:33;1.70;;;0.95;;
30420;SDS011;17218;54.070;10.012;2024-03-25T14:56:59;5.95;;;0.93;;
30420;SDS011;17218;54.070;10.012;2024-03-25T14:59:26;4.28;;;1.00;;
30420;SDS011;17218;54.070;10.012;2024-03-25T15:01:51;3.53;;;0.93;;
30420;SDS011;17218;54.070;10.012;2024-03-25T15:04:17;4.35;;;1.08;;
30420;SDS011;17218;54.070;10.012;2024-03-25T15:06:42;2.15;;;1.08;;
30420;SDS011;17218;54.070;10.012;2024-03-25T15:09:09;3.17;;;0.85;;